MMLP/LAP METAR and TAF weather

Enter ICAO airport designator
Station Type Date Time Source
MMLP METAR 2019/08/25 19:49 UTC NOAA

MMLP 251949Z 36012KT 10SM FEW220 36/16 A2988 RMK 8/008 ISOL SC


Station Type Date Time Source
MMLP Decoded METAR 2019/08/25 19:49 UTC NOAA

Station name not available
Aug 25, 2019 - 03:49 PM EDT / 2019.08.25 1949 UTC
Wind: from the N (360 degrees) at 14 MPH (12 KT):0
Visibility: 10 mile(s):0
Sky conditions: mostly clear
Temperature: 96 F (36 C)
Heat index: 95.9 F (35.5 C):1
Dew Point: 60 F (16 C)
Relative Humidity: 30%
Pressure (altimeter): 29.88 in. Hg (1011 hPa)
ob: MMLP 251949Z 36012KT 10SM FEW220 36/16 A2988 RMK 8/008 ISOL SC
cycle: 20

Station Type Date Time Source
MMLP TAF 2019/08/25 18:42 UTC NOAA

TAF MMLP 251640Z 2518/2618 19006KT P6SM SCT200
BECMG 2520/2521 23012KT SCT020 BKN200
FM260200 18005KT P6SM BKN200
BECMG 2605/2606 00000KT SCT200
FM261200 19005KT P6SM SCT200

Example: see airport list